Terminal Aerodrome Forecast
Issued by NWS

Home | Current Version | Previous Version | Text Only | Print | Product List | Glossary On
Versions: 1 2 3 4 5 6 7 8 9 10 11 12 13 14 15 16 17 18 19 20 21 22 23 24 25 26 27 28 29 30 31 32 33 34 35
000
FTUS45 KLKN 210000 AAA
TAFWMC
TAF AMD
KWMC 210008Z 2100/2124 17010KT P6SM BKN100
     FM210200 16008KT P6SM VCTS BKN100CB
      TEMPO 2102/2105 VRB15G35KT -TSRA BKN080CB
     FM210500 02012G22KT P6SM VCTS BKN080CB
     FM210800 VRB05KT P6SM BKN100
     FM211900 VRB05KT P6SM VCTS BKN080CB=

USA.gov is the U.S. government's official web portal to all federal, state and local government web resources and services.